createdAt,value
2022-11-24T00:01:33.269Z,24.03
2022-11-24T00:04:03.336Z,24.63
2022-11-24T00:06:33.887Z,25.83
2022-11-24T00:09:03.520Z,28.57
2022-11-24T00:11:33.475Z,24.10
2022-11-24T00:14:04.334Z,26.20
2022-11-24T00:16:35.805Z,27.27
2022-11-24T00:19:09.316Z,27.03
2022-11-24T00:21:41.774Z,27.63
2022-11-24T00:24:11.974Z,26.30
2022-11-24T00:26:40.408Z,36.87
2022-11-24T00:29:12.454Z,28.27
2022-11-24T00:31:42.953Z,26.73
2022-11-24T00:34:15.732Z,28.63
2022-11-24T00:36:44.458Z,29.43
2022-11-24T00:39:15.637Z,26.37
2022-11-24T00:41:44.765Z,27.70
2022-11-24T00:44:15.266Z,28.13
2022-11-24T00:46:44.187Z,24.70
2022-11-24T00:49:12.787Z,25.03
2022-11-24T00:51:42.384Z,27.23
2022-11-24T00:54:11.225Z,26.20
2022-11-24T00:56:39.862Z,29.53
2022-11-24T00:59:08.693Z,26.50
2022-11-24T01:01:39.269Z,25.47
2022-11-24T01:04:09.800Z,26.30
2022-11-24T01:06:39.402Z,25.17
2022-11-24T01:09:07.980Z,26.30
2022-11-24T01:11:53.574Z,26.17
2022-11-24T01:14:25.065Z,25.43
2022-11-24T01:16:55.897Z,22.73
2022-11-24T01:19:25.335Z,26.27
2022-11-24T01:21:54.358Z,24.83
2022-11-24T01:24:23.008Z,21.67
2022-11-24T01:26:56.239Z,23.30
2022-11-24T01:29:26.557Z,20.33
2022-11-24T01:31:56.721Z,23.30
2022-11-24T01:34:25.615Z,25.03
2022-11-24T01:36:54.283Z,24.13
2022-11-24T01:39:23.785Z,23.57
2022-11-24T01:41:52.985Z,22.43
2022-11-24T01:44:24.223Z,22.00
2022-11-24T01:47:00.514Z,20.13
2022-11-24T01:49:38.063Z,22.77
2022-11-24T01:52:15.806Z,24.13
2022-11-24T01:54:48.642Z,27.07
2022-11-24T01:57:23.374Z,22.90
2022-11-24T01:59:56.892Z,23.33
2022-11-24T02:02:29.871Z,25.13
2022-11-24T02:05:04.173Z,20.37
2022-11-24T02:07:33.344Z,23.50
2022-11-24T02:10:06.311Z,22.80
2022-11-24T02:12:35.124Z,23.70
2022-11-24T02:15:03.569Z,23.87
2022-11-24T02:17:33.698Z,25.40
2022-11-24T02:20:05.092Z,22.00
2022-11-24T02:22:39.453Z,23.23
2022-11-24T02:25:18.525Z,20.90
2022-11-24T02:27:53.729Z,21.77
2022-11-24T02:30:22.931Z,21.33
2022-11-24T02:32:52.983Z,17.87
2022-11-24T02:35:22.453Z,20.17
2022-11-24T02:37:50.885Z,22.03
2022-11-24T02:40:25.645Z,21.17
2022-11-24T02:43:00.023Z,20.90
2022-11-24T02:45:29.511Z,23.20
2022-11-24T02:47:57.683Z,25.50
2022-11-24T02:50:26.311Z,26.43
2022-11-24T02:52:55.144Z,21.70
2022-11-24T02:55:23.784Z,22.27
2022-11-24T02:57:57.544Z,22.83
2022-11-24T03:00:37.650Z,23.33
2022-11-24T03:03:06.271Z,26.63
2022-11-24T03:05:35.158Z,25.03
2022-11-24T03:08:03.843Z,24.40
2022-11-24T03:10:32.435Z,24.63
2022-11-24T03:13:01.254Z,22.53
2022-11-24T03:15:31.475Z,21.90
2022-11-24T03:17:59.964Z,21.73
2022-11-24T03:20:29.278Z,24.10
2022-11-24T03:22:58.860Z,24.10
2022-11-24T03:25:27.324Z,24.23
2022-11-24T03:27:57.639Z,28.27
2022-11-24T03:30:26.403Z,28.07
2022-11-24T03:32:56.542Z,19.30
2022-11-24T03:35:26.126Z,23.70
2022-11-24T03:37:54.552Z,22.90
2022-11-24T03:40:23.040Z,26.53
2022-11-24T03:42:51.536Z,24.40
2022-11-24T03:45:44.817Z,25.33
2022-11-24T03:48:11.912Z,23.30
2022-11-24T03:50:40.372Z,22.93
2022-11-24T03:53:09.072Z,21.90
2022-11-24T03:55:38.170Z,26.40
2022-11-24T03:58:06.670Z,22.80
2022-11-24T04:00:36.373Z,27.53
2022-11-24T04:03:05.052Z,22.60
2022-11-24T04:05:37.941Z,27.47
2022-11-24T04:08:07.221Z,19.30
2022-11-24T04:10:37.619Z,24.93
2022-11-24T04:13:06.125Z,24.07
2022-11-24T04:15:34.415Z,27.17
2022-11-24T04:18:04.372Z,32.37
2022-11-24T04:20:35.215Z,27.37
2022-11-24T04:23:04.105Z,20.47
2022-11-24T04:25:34.279Z,44.03
2022-11-24T04:28:04.060Z,48.03
2022-11-24T04:30:32.764Z,27.63
2022-11-24T04:33:01.559Z,102.93
2022-11-24T04:35:30.543Z,41.97
2022-11-24T04:38:03.883Z,95.63
2022-11-24T04:40:32.366Z,33.07
2022-11-24T04:43:00.841Z,54.33
2022-11-24T04:45:29.631Z,20.03
2022-11-24T04:47:58.171Z,20.50
2022-11-24T04:50:27.065Z,27.37
2022-11-24T04:52:55.678Z,23.60
2022-11-24T04:55:25.842Z,28.93
2022-11-24T04:57:54.209Z,22.83
2022-11-24T05:00:22.897Z,21.07
2022-11-24T05:02:51.363Z,24.60
2022-11-24T05:05:20.589Z,22.57
2022-11-24T05:07:48.810Z,23.63
2022-11-24T05:10:35.152Z,22.13
2022-11-24T05:13:06.360Z,26.07
2022-11-24T05:15:36.208Z,27.50
2022-11-24T05:18:07.632Z,32.13
2022-11-24T05:20:36.770Z,25.53
2022-11-24T05:23:06.329Z,32.83
2022-11-24T05:25:34.892Z,30.13
2022-11-24T05:28:08.947Z,25.90
2022-11-24T05:30:40.151Z,27.13
2022-11-24T05:33:09.005Z,25.23
2022-11-24T05:35:38.217Z,23.40
2022-11-24T05:38:08.003Z,24.00
2022-11-24T05:40:36.392Z,23.93
2022-11-24T05:43:06.324Z,25.90
2022-11-24T05:45:34.789Z,30.20
2022-11-24T05:48:06.946Z,28.33
2022-11-24T05:50:36.969Z,30.20
2022-11-24T05:53:06.535Z,26.10
2022-11-24T05:55:37.073Z,27.20
2022-11-24T05:58:10.146Z,24.50
2022-11-24T06:00:38.372Z,27.73
2022-11-24T06:03:07.154Z,22.27
2022-11-24T06:05:36.022Z,23.77
2022-11-24T06:08:04.487Z,21.87
2022-11-24T06:10:33.044Z,28.60
2022-11-24T06:13:01.432Z,28.70
2022-11-24T06:15:31.205Z,24.90
2022-11-24T06:17:59.490Z,20.50
2022-11-24T06:20:32.503Z,25.27
2022-11-24T06:23:03.147Z,22.77
2022-11-24T06:25:31.677Z,25.63
2022-11-24T06:28:00.148Z,17.83
2022-11-24T06:30:28.845Z,21.37
2022-11-24T06:32:59.180Z,18.17
2022-11-24T06:35:30.020Z,24.17
2022-11-24T06:37:58.783Z,28.73
2022-11-24T06:40:27.387Z,20.40
2022-11-24T06:42:57.246Z,21.63
2022-11-24T06:45:26.044Z,18.80
2022-11-24T06:47:58.444Z,21.43
2022-11-24T06:50:33.409Z,21.33
2022-11-24T06:53:03.708Z,27.53
2022-11-24T06:55:32.402Z,26.80
2022-11-24T06:58:00.852Z,27.07
2022-11-24T07:00:32.297Z,24.33
2022-11-24T07:03:00.854Z,24.60
2022-11-24T07:05:31.804Z,23.83
2022-11-24T07:08:01.969Z,22.37
2022-11-24T07:10:30.983Z,21.00
2022-11-24T07:12:59.673Z,21.80
2022-11-24T07:15:30.173Z,23.27
2022-11-24T07:17:58.617Z,20.63
2022-11-24T07:20:29.329Z,23.40
2022-11-24T07:23:00.398Z,23.63
2022-11-24T07:25:29.447Z,22.87
2022-11-24T07:27:58.387Z,27.30
2022-11-24T07:30:27.886Z,23.47
2022-11-24T07:33:02.212Z,29.37
2022-11-24T07:35:31.388Z,22.93
2022-11-24T07:38:01.689Z,28.20
2022-11-24T07:40:31.126Z,24.80
2022-11-24T07:43:02.362Z,19.20
2022-11-24T07:45:30.773Z,27.40
2022-11-24T07:47:59.171Z,25.27
2022-11-24T07:50:27.681Z,25.47
2022-11-24T07:52:56.401Z,30.27
2022-11-24T07:55:26.264Z,26.33
2022-11-24T07:57:54.795Z,25.00
2022-11-24T08:00:24.576Z,25.90
2022-11-24T08:02:54.220Z,28.77
2022-11-24T08:05:23.368Z,20.30
2022-11-24T08:07:53.498Z,22.47
2022-11-24T08:10:27.160Z,19.77
2022-11-24T08:12:56.205Z,26.30
2022-11-24T08:15:25.703Z,25.13
2022-11-24T08:17:54.344Z,42.97
2022-11-24T08:20:25.357Z,41.90
2022-11-24T08:23:04.900Z,79.90
2022-11-24T08:25:35.167Z,51.00
2022-11-24T08:28:08.698Z,36.33
2022-11-24T08:30:36.877Z,58.60
2022-11-24T08:33:06.825Z,39.37
2022-11-24T08:35:38.469Z,44.47
2022-11-24T08:38:08.572Z,52.70
2022-11-24T08:40:39.907Z,46.10
2022-11-24T08:43:09.981Z,41.67
2022-11-24T08:45:41.655Z,29.60
2022-11-24T08:48:11.674Z,43.60
2022-11-24T08:50:40.104Z,27.47
2022-11-24T08:53:08.575Z,37.67
2022-11-24T08:55:38.175Z,24.80
2022-11-24T08:58:06.760Z,28.30
2022-11-24T09:00:37.885Z,30.60
2022-11-24T09:03:06.840Z,36.17
2022-11-24T09:05:52.456Z,34.17
2022-11-24T09:08:23.944Z,25.87
2022-11-24T09:10:56.941Z,26.27
2022-11-24T09:13:27.162Z,24.40
2022-11-24T09:15:56.102Z,20.87
2022-11-24T09:18:28.957Z,26.83
2022-11-24T09:21:08.216Z,25.50
2022-11-24T09:23:36.605Z,21.07
2022-11-24T09:26:08.538Z,107.03
2022-11-24T09:28:36.879Z,45.37
2022-11-24T09:31:07.352Z,23.40
2022-11-24T09:33:37.043Z,23.83
2022-11-24T09:36:06.400Z,15.93
2022-11-24T09:38:34.895Z,28.27
2022-11-24T09:41:22.909Z,17.03
2022-11-24T09:44:02.259Z,20.93
2022-11-24T09:46:35.063Z,22.83
2022-11-24T09:49:06.430Z,17.23
2022-11-24T09:51:35.346Z,17.90
2022-11-24T09:54:13.262Z,25.47
2022-11-24T09:56:43.663Z,18.87
2022-11-24T09:59:16.986Z,18.37
2022-11-24T10:01:47.059Z,21.90
2022-11-24T10:04:18.461Z,18.80
2022-11-24T10:06:53.118Z,13.27
2022-11-24T10:09:34.697Z,19.27
2022-11-24T10:12:17.607Z,15.77
2022-11-24T10:15:05.020Z,11.00
2022-11-24T10:17:51.787Z,12.20
2022-11-24T10:20:27.783Z,22.03
2022-11-24T10:23:10.951Z,17.87
2022-11-24T10:25:50.821Z,11.43
2022-11-24T10:28:20.671Z,15.73
2022-11-24T10:30:49.257Z,10.00
2022-11-24T10:33:27.088Z,9.10
2022-11-24T10:36:05.971Z,17.53
2022-11-24T10:38:43.491Z,8.93
2022-11-24T10:41:17.905Z,12.07
2022-11-24T10:43:47.500Z,9.70
2022-11-24T10:46:20.826Z,16.23
2022-11-24T10:48:52.223Z,17.30
2022-11-24T10:51:38.588Z,10.80
2022-11-24T10:54:13.801Z,11.77
2022-11-24T10:56:44.987Z,8.23
2022-11-24T10:59:32.447Z,7.67
2022-11-24T11:02:01.360Z,6.33
2022-11-24T11:04:31.246Z,8.27
2022-11-24T11:07:19.847Z,8.43
2022-11-24T11:09:49.412Z,8.47
2022-11-24T11:15:32.744Z,8.47
2022-11-24T11:18:02.242Z,9.90
2022-11-24T11:20:34.703Z,7.40
2022-11-24T11:23:15.218Z,11.97
2022-11-24T11:25:43.902Z,11.43
2022-11-24T11:28:28.023Z,9.50
2022-11-24T11:31:21.339Z,11.17
2022-11-24T11:34:06.305Z,6.80
2022-11-24T11:36:36.172Z,8.47
2022-11-24T11:39:05.384Z,10.47
2022-11-24T11:41:37.588Z,12.70
2022-11-24T11:44:19.534Z,7.10
2022-11-24T11:46:49.474Z,7.73
2022-11-24T11:49:17.749Z,12.77
2022-11-24T11:51:57.750Z,7.93
2022-11-24T11:54:42.733Z,7.00
2022-11-24T11:57:16.584Z,10.37
2022-11-24T11:59:59.899Z,8.73
2022-11-24T12:03:06.435Z,9.07
2022-11-24T12:05:47.780Z,7.63
2022-11-24T12:08:43.998Z,9.43
2022-11-24T12:11:27.378Z,7.77
2022-11-24T12:14:12.207Z,8.23
2022-11-24T12:16:47.848Z,8.63
2022-11-24T12:19:30.281Z,7.47
2022-11-24T12:22:09.131Z,8.80
2022-11-24T12:24:45.694Z,8.83
2022-11-24T12:27:28.795Z,9.43
2022-11-24T12:30:07.195Z,11.63
2022-11-24T12:32:54.495Z,10.00
2022-11-24T12:35:32.083Z,17.93
2022-11-24T12:38:12.581Z,7.93
2022-11-24T12:41:18.164Z,8.60
2022-11-24T12:43:52.406Z,7.30
2022-11-24T12:46:26.992Z,9.30
2022-11-24T12:49:05.831Z,10.23
2022-11-24T12:51:40.141Z,8.30
2022-11-24T12:54:13.893Z,5.17
2022-11-24T12:56:46.944Z,8.50
2022-11-24T12:59:25.967Z,8.63
2022-11-24T13:02:06.180Z,8.77
2022-11-24T13:04:39.632Z,5.60
2022-11-24T13:07:19.827Z,10.97
2022-11-24T13:10:34.673Z,12.30
2022-11-24T13:13:11.672Z,8.33
2022-11-24T13:19:15.506Z,10.33
2022-11-24T13:22:21.001Z,5.23
2022-11-24T13:25:12.817Z,7.93
2022-11-24T13:27:43.690Z,8.97
2022-11-24T13:30:52.501Z,11.20
2022-11-24T13:33:31.458Z,9.60
2022-11-24T13:36:31.726Z,9.63
2022-11-24T13:39:02.166Z,11.40
2022-11-24T13:42:03.726Z,6.53
2022-11-24T13:44:51.145Z,10.93
2022-11-24T13:47:40.757Z,7.47
2022-11-24T13:50:14.981Z,6.07
2022-11-24T13:52:50.560Z,9.33
2022-11-24T13:55:30.515Z,12.37
2022-11-24T13:58:04.558Z,7.27
2022-11-24T14:00:36.673Z,7.07
2022-11-24T14:03:17.505Z,5.67
2022-11-24T14:05:50.559Z,11.13
2022-11-24T14:08:24.630Z,8.80
2022-11-24T14:10:53.758Z,7.87
2022-11-24T14:13:27.995Z,11.83
2022-11-24T14:16:18.016Z,14.23
2022-11-24T14:18:49.949Z,12.97
2022-11-24T14:21:29.316Z,9.20
2022-11-24T14:24:01.394Z,8.63
2022-11-24T14:26:34.440Z,7.43
2022-11-24T14:29:07.769Z,8.00
2022-11-24T14:31:37.470Z,9.17
2022-11-24T14:34:18.131Z,9.73
2022-11-24T14:36:46.602Z,6.90
2022-11-24T14:39:17.167Z,8.67
2022-11-24T14:41:54.574Z,8.33
2022-11-24T14:44:26.717Z,8.67
2022-11-24T14:47:05.749Z,5.33
2022-11-24T14:49:35.586Z,7.63
2022-11-24T14:52:06.342Z,5.50
2022-11-24T14:54:38.925Z,7.37
2022-11-24T14:57:08.456Z,7.70
2022-11-24T14:59:38.495Z,8.93
2022-11-24T15:02:52.243Z,6.63
2022-11-24T15:05:21.973Z,7.70
2022-11-24T15:07:52.369Z,28.77
2022-11-24T15:10:35.014Z,28.57
2022-11-24T15:13:05.957Z,16.53
2022-11-24T15:15:38.045Z,8.37
2022-11-24T15:18:08.232Z,12.03
2022-11-24T15:20:41.715Z,11.70
2022-11-24T15:23:22.821Z,6.77
2022-11-24T15:25:58.722Z,9.53
2022-11-24T15:28:27.051Z,15.33
2022-11-24T15:30:56.080Z,9.53
2022-11-24T15:33:25.806Z,10.60
2022-11-24T15:35:54.881Z,7.40
2022-11-24T15:38:24.156Z,9.13
2022-11-24T15:40:53.995Z,7.60
2022-11-24T15:43:30.319Z,8.10
2022-11-24T15:45:59.381Z,9.83
2022-11-24T15:48:30.204Z,8.70
2022-11-24T15:50:59.735Z,6.80
2022-11-24T15:53:33.980Z,8.33
2022-11-24T15:56:04.007Z,9.67
2022-11-24T15:58:32.528Z,7.83
2022-11-24T16:01:01.248Z,9.73
2022-11-24T16:03:48.175Z,12.67
2022-11-24T16:06:24.536Z,8.20
2022-11-24T16:08:53.431Z,12.20
2022-11-24T16:11:22.153Z,10.67
2022-11-24T16:13:53.488Z,10.80
2022-11-24T16:16:23.634Z,12.10
2022-11-24T16:18:57.293Z,7.70
2022-11-24T16:21:27.035Z,7.97
2022-11-24T16:23:55.747Z,9.23
2022-11-24T16:26:24.396Z,7.97
2022-11-24T16:28:52.864Z,14.10
2022-11-24T16:31:21.997Z,14.47
2022-11-24T16:33:50.474Z,10.23
2022-11-24T16:36:21.209Z,15.70
2022-11-24T16:38:49.661Z,9.70
2022-11-24T16:41:18.033Z,10.90
2022-11-24T16:43:47.441Z,13.13
2022-11-24T16:46:22.219Z,9.70
2022-11-24T16:48:55.175Z,9.77
2022-11-24T16:51:29.982Z,10.03
2022-11-24T16:54:03.180Z,9.43
2022-11-24T16:56:34.286Z,7.87
2022-11-24T16:59:02.851Z,7.93
2022-11-24T17:01:31.099Z,9.67
2022-11-24T17:03:59.594Z,7.40
2022-11-24T17:06:29.402Z,9.20
2022-11-24T17:08:57.492Z,10.67
2022-11-24T17:11:28.263Z,9.13
2022-11-24T17:13:57.788Z,9.87
2022-11-24T17:16:27.375Z,11.07
2022-11-24T17:18:56.374Z,5.60
2022-11-24T17:21:26.311Z,10.17
2022-11-24T17:23:57.775Z,9.03
2022-11-24T17:26:26.720Z,10.87
2022-11-24T17:28:56.093Z,10.57
2022-11-24T17:31:26.409Z,10.40
2022-11-24T17:33:56.541Z,11.00
2022-11-24T17:36:25.571Z,18.00
2022-11-24T17:38:55.547Z,9.63
2022-11-24T17:41:24.802Z,11.00
2022-11-24T17:43:56.809Z,11.63
2022-11-24T17:46:26.834Z,9.93
2022-11-24T17:48:55.723Z,14.37
2022-11-24T17:51:25.253Z,10.47
2022-11-24T17:53:57.543Z,10.97
2022-11-24T17:56:27.437Z,9.30
2022-11-24T17:58:56.567Z,7.37
2022-11-24T18:01:26.198Z,15.10
2022-11-24T18:03:55.180Z,13.20
2022-11-24T18:06:25.667Z,13.73
2022-11-24T18:08:57.859Z,8.33
2022-11-24T18:11:31.454Z,9.50
2022-11-24T18:14:03.503Z,8.03
2022-11-24T18:16:33.406Z,13.00
2022-11-24T18:19:11.336Z,18.07
2022-11-24T18:21:40.805Z,12.53
2022-11-24T18:24:11.930Z,10.43
2022-11-24T18:26:42.678Z,12.63
2022-11-24T18:29:11.565Z,12.10
2022-11-24T18:31:40.661Z,20.70
2022-11-24T18:34:09.277Z,12.53
2022-11-24T18:36:38.392Z,11.70
2022-11-24T18:39:08.603Z,16.17
2022-11-24T18:41:40.675Z,12.43
2022-11-24T18:44:09.088Z,15.97
2022-11-24T18:46:38.145Z,10.87
2022-11-24T18:49:07.140Z,13.13
2022-11-24T18:51:36.190Z,13.93
2022-11-24T18:54:05.751Z,16.00
2022-11-24T18:56:34.230Z,12.33
2022-11-24T18:59:05.253Z,11.07
2022-11-24T19:01:34.761Z,15.17
2022-11-24T19:04:04.168Z,13.83
2022-11-24T19:06:34.966Z,14.83
2022-11-24T19:09:05.980Z,11.70
2022-11-24T19:11:37.269Z,11.63
2022-11-24T19:14:09.371Z,11.97
2022-11-24T19:16:38.461Z,11.47
2022-11-24T19:19:07.695Z,10.53
2022-11-24T19:21:38.073Z,13.27
2022-11-24T19:24:07.567Z,16.33
2022-11-24T19:26:37.419Z,14.13
2022-11-24T19:29:08.807Z,19.13
2022-11-24T19:31:38.547Z,19.00
2022-11-24T19:34:08.247Z,15.03
2022-11-24T19:36:36.782Z,17.10
2022-11-24T19:39:05.738Z,16.90
2022-11-24T19:41:34.954Z,12.30
2022-11-24T19:44:03.390Z,11.47
2022-11-24T19:46:33.675Z,13.20
2022-11-24T19:49:04.079Z,10.33
2022-11-24T19:51:33.742Z,15.87
2022-11-24T19:54:02.590Z,15.87
2022-11-24T19:56:35.153Z,14.80
2022-11-24T19:59:04.997Z,12.60
2022-11-24T20:01:38.329Z,24.30
2022-11-24T20:04:09.219Z,30.50
2022-11-24T20:06:39.758Z,24.80
2022-11-24T20:09:10.913Z,18.73
2022-11-24T20:11:39.871Z,12.97
2022-11-24T20:14:16.500Z,11.23
2022-11-24T20:16:47.967Z,14.83
2022-11-24T20:19:18.984Z,15.50
2022-11-24T20:21:49.506Z,19.57
2022-11-24T20:24:22.295Z,15.17
2022-11-24T20:26:52.915Z,19.87
2022-11-24T20:29:22.865Z,16.30
2022-11-24T20:31:55.304Z,13.30
2022-11-24T20:34:24.873Z,16.00
2022-11-24T20:36:54.635Z,15.93
2022-11-24T20:39:26.474Z,18.30
2022-11-24T20:41:56.127Z,25.03
2022-11-24T20:44:26.896Z,19.43
2022-11-24T20:47:00.530Z,17.30
2022-11-24T20:49:30.028Z,25.00
2022-11-24T20:51:58.357Z,30.73
2022-11-24T20:54:26.882Z,23.47
2022-11-24T20:56:55.882Z,19.93
2022-11-24T20:59:26.011Z,22.13
2022-11-24T21:01:57.333Z,15.17
2022-11-24T21:04:27.730Z,21.73
2022-11-24T21:06:56.192Z,18.43
2022-11-24T21:09:25.510Z,22.33
2022-11-24T21:11:54.862Z,12.33
2022-11-24T21:14:24.583Z,18.27
2022-11-24T21:16:52.893Z,14.87
2022-11-24T21:19:22.721Z,12.80
2022-11-24T21:21:51.118Z,16.00
2022-11-24T21:24:21.723Z,16.43
2022-11-24T21:26:52.927Z,13.07
2022-11-24T21:29:23.883Z,22.70
2022-11-24T21:31:52.725Z,15.00
2022-11-24T21:34:25.403Z,17.50
2022-11-24T21:36:53.535Z,10.97
2022-11-24T21:39:22.691Z,14.40
2022-11-24T21:41:50.948Z,12.90
2022-11-24T21:44:19.261Z,17.90
2022-11-24T21:46:52.717Z,11.03
2022-11-24T21:49:26.190Z,19.10
2022-11-24T21:51:56.052Z,17.47
2022-11-24T21:54:25.045Z,11.03
2022-11-24T21:56:55.676Z,18.17
2022-11-24T21:59:24.603Z,14.73
2022-11-24T22:01:53.336Z,16.37
2022-11-24T22:04:21.865Z,13.90
2022-11-24T22:06:54.414Z,16.17
2022-11-24T22:09:24.110Z,12.23
2022-11-24T22:11:53.344Z,20.93
2022-11-24T22:14:22.409Z,18.10
2022-11-24T22:16:50.600Z,15.80
2022-11-24T22:19:20.421Z,14.40
2022-11-24T22:21:49.087Z,13.83
2022-11-24T22:24:25.788Z,22.60
2022-11-24T22:26:55.988Z,20.23
2022-11-24T22:29:24.717Z,17.23
2022-11-24T22:31:53.197Z,17.43
2022-11-24T22:34:22.064Z,18.30
2022-11-24T22:36:55.217Z,14.73
2022-11-24T22:39:25.146Z,16.10
2022-11-24T22:41:55.376Z,18.80
2022-11-24T22:44:23.553Z,20.53
2022-11-24T22:46:51.985Z,17.10
2022-11-24T22:49:20.227Z,21.47
2022-11-24T22:51:48.681Z,24.23
2022-11-24T22:54:16.823Z,17.00
2022-11-24T22:56:46.622Z,14.47
2022-11-24T22:59:14.825Z,22.57
2022-11-24T23:01:43.218Z,21.27
2022-11-24T23:04:11.462Z,20.83
2022-11-24T23:06:39.903Z,14.10
2022-11-24T23:09:08.418Z,20.33
2022-11-24T23:11:41.515Z,13.77
2022-11-24T23:14:15.375Z,23.10
2022-11-24T23:16:44.095Z,21.60
2022-11-24T23:19:12.405Z,15.97
2022-11-24T23:21:41.119Z,24.27
2022-11-24T23:24:10.235Z,14.60
2022-11-24T23:26:41.545Z,17.30
2022-11-24T23:29:12.015Z,18.20
2022-11-24T23:31:41.058Z,14.97
2022-11-24T23:34:11.270Z,25.27
2022-11-24T23:36:39.632Z,17.27
2022-11-24T23:39:09.629Z,17.17
2022-11-24T23:41:37.747Z,21.60
2022-11-24T23:44:09.954Z,23.40
2022-11-24T23:46:40.225Z,18.97
2022-11-24T23:49:08.311Z,24.10
2022-11-24T23:51:36.831Z,16.47
2022-11-24T23:54:09.119Z,17.23
2022-11-24T23:56:37.203Z,19.97
2022-11-24T23:59:11.339Z,19.30
